sensor_id;sensor_type;location;lat;lon;timestamp;temperature;humidity
74537;SHT31;63013;51.104;-115.370;2023-03-14T00:01:14;22.80;30.16
74537;SHT31;63013;51.104;-115.370;2023-03-14T00:03:45;22.79;30.21
74537;SHT31;63013;51.104;-115.370;2023-03-14T00:06:13;22.79;30.27
74537;SHT31;63013;51.104;-115.370;2023-03-14T00:08:44;22.78;30.39
74537;SHT31;63013;51.104;-115.370;2023-03-14T00:11:15;22.76;30.46
74537;SHT31;63013;51.104;-115.370;2023-03-14T00:13:50;22.75;30.55
74537;SHT31;63013;51.104;-115.370;2023-03-14T00:16:18;22.74;30.67
74537;SHT31;63013;51.104;-115.370;2023-03-14T00:18:46;22.72;30.69
74537;SHT31;63013;51.104;-115.370;2023-03-14T00:21:13;22.71;30.69
74537;SHT31;63013;51.104;-115.370;2023-03-14T00:23:41;22.71;30.79
74537;SHT31;63013;51.104;-115.370;2023-03-14T00:26:10;22.69;30.87
74537;SHT31;63013;51.104;-115.370;2023-03-14T00:28:42;22.69;30.96
74537;SHT31;63013;51.104;-115.370;2023-03-14T00:31:11;22.68;31.02
74537;SHT31;63013;51.104;-115.370;2023-03-14T00:33:42;22.68;30.96
74537;SHT31;63013;51.104;-115.370;2023-03-14T00:36:15;22.67;30.89
74537;SHT31;63013;51.104;-115.370;2023-03-14T00:38:46;22.66;30.86
74537;SHT31;63013;51.104;-115.370;2023-03-14T00:41:17;22.65;30.82
74537;SHT31;63013;51.104;-115.370;2023-03-14T00:43:48;22.63;30.80
74537;SHT31;63013;51.104;-115.370;2023-03-14T00:46:16;22.63;30.80
74537;SHT31;63013;51.104;-115.370;2023-03-14T00:48:46;22.61;30.79
74537;SHT31;63013;51.104;-115.370;2023-03-14T00:51:14;22.60;30.80
74537;SHT31;63013;51.104;-115.370;2023-03-14T00:53:41;22.60;30.80
74537;SHT31;63013;51.104;-115.370;2023-03-14T00:56:10;22.58;30.77
74537;SHT31;63013;51.104;-115.370;2023-03-14T00:58:38;22.58;30.79
74537;SHT31;63013;51.104;-115.370;2023-03-14T01:01:10;22.56;30.81
74537;SHT31;63013;51.104;-115.370;2023-03-14T01:03:41;22.54;30.80
74537;SHT31;63013;51.104;-115.370;2023-03-14T01:06:19;22.52;30.80
74537;SHT31;63013;51.104;-115.370;2023-03-14T01:08:49;22.50;30.80
74537;SHT31;63013;51.104;-115.370;2023-03-14T01:11:18;22.49;30.77
74537;SHT31;63013;51.104;-115.370;2023-03-14T01:13:51;22.48;30.76
74537;SHT31;63013;51.104;-115.370;2023-03-14T01:16:20;22.48;30.76
74537;SHT31;63013;51.104;-115.370;2023-03-14T01:18:50;22.45;30.75
74537;SHT31;63013;51.104;-115.370;2023-03-14T01:21:24;22.45;30.75
74537;SHT31;63013;51.104;-115.370;2023-03-14T01:23:57;22.43;30.72
74537;SHT31;63013;51.104;-115.370;2023-03-14T01:26:34;22.41;30.76
74537;SHT31;63013;51.104;-115.370;2023-03-14T01:29:02;22.39;30.78
74537;SHT31;63013;51.104;-115.370;2023-03-14T01:31:30;22.38;30.80
74537;SHT31;63013;51.104;-115.370;2023-03-14T01:33:57;22.35;30.81
74537;SHT31;63013;51.104;-115.370;2023-03-14T01:36:24;22.35;30.80
74537;SHT31;63013;51.104;-115.370;2023-03-14T01:38:51;22.33;30.80
74537;SHT31;63013;51.104;-115.370;2023-03-14T01:41:20;22.32;30.80
74537;SHT31;63013;51.104;-115.370;2023-03-14T01:43:50;22.30;30.81
74537;SHT31;63013;51.104;-115.370;2023-03-14T01:46:38;22.29;30.80
74537;SHT31;63013;51.104;-115.370;2023-03-14T01:52:11;22.24;30.80
74537;SHT31;63013;51.104;-115.370;2023-03-14T01:54:55;22.23;30.80
74537;SHT31;63013;51.104;-115.370;2023-03-14T01:57:30;22.22;30.81
74537;SHT31;63013;51.104;-115.370;2023-03-14T02:00:10;22.20;30.80
74537;SHT31;63013;51.104;-115.370;2023-03-14T02:02:46;22.19;30.80
74537;SHT31;63013;51.104;-115.370;2023-03-14T02:05:22;22.18;30.81
74537;SHT31;63013;51.104;-115.370;2023-03-14T02:07:59;22.17;30.82
74537;SHT31;63013;51.104;-115.370;2023-03-14T02:10:31;22.15;30.84
74537;SHT31;63013;51.104;-115.370;2023-03-14T02:13:06;22.14;30.84
74537;SHT31;63013;51.104;-115.370;2023-03-14T02:15:33;22.12;30.81
74537;SHT31;63013;51.104;-115.370;2023-03-14T02:18:02;22.11;30.82
74537;SHT31;63013;51.104;-115.370;2023-03-14T02:23:11;22.08;30.80
74537;SHT31;63013;51.104;-115.370;2023-03-14T02:25:47;22.06;30.82
74537;SHT31;63013;51.104;-115.370;2023-03-14T02:28:34;22.05;30.83
74537;SHT31;63013;51.104;-115.370;2023-03-14T02:31:01;22.03;30.80
74537;SHT31;63013;51.104;-115.370;2023-03-14T02:33:28;22.03;30.82
74537;SHT31;63013;51.104;-115.370;2023-03-14T02:35:57;22.01;30.84
74537;SHT31;63013;51.104;-115.370;2023-03-14T02:38:38;22.00;30.85
74537;SHT31;63013;51.104;-115.370;2023-03-14T02:41:12;21.98;30.82
74537;SHT31;63013;51.104;-115.370;2023-03-14T02:43:41;21.96;30.82
74537;SHT31;63013;51.104;-115.370;2023-03-14T02:46:08;21.95;30.82
74537;SHT31;63013;51.104;-115.370;2023-03-14T02:48:49;21.95;30.85
74537;SHT31;63013;51.104;-115.370;2023-03-14T02:51:26;21.92;30.87
74537;SHT31;63013;51.104;-115.370;2023-03-14T02:53:55;21.92;30.88
74537;SHT31;63013;51.104;-115.370;2023-03-14T02:56:22;21.91;30.93
74537;SHT31;63013;51.104;-115.370;2023-03-14T02:58:49;21.90;30.90
74537;SHT31;63013;51.104;-115.370;2023-03-14T03:01:17;21.88;30.89
74537;SHT31;63013;51.104;-115.370;2023-03-14T03:03:44;21.87;30.89
74537;SHT31;63013;51.104;-115.370;2023-03-14T03:06:11;21.86;30.87
74537;SHT31;63013;51.104;-115.370;2023-03-14T03:08:38;21.84;30.82
74537;SHT31;63013;51.104;-115.370;2023-03-14T03:11:05;21.83;30.80
74537;SHT31;63013;51.104;-115.370;2023-03-14T03:13:33;21.82;30.79
74537;SHT31;63013;51.104;-115.370;2023-03-14T03:16:00;21.81;30.78
74537;SHT31;63013;51.104;-115.370;2023-03-14T03:18:28;21.80;30.80
74537;SHT31;63013;51.104;-115.370;2023-03-14T03:20:59;21.78;30.81
74537;SHT31;63013;51.104;-115.370;2023-03-14T03:23:27;21.77;30.83
74537;SHT31;63013;51.104;-115.370;2023-03-14T03:25:55;21.76;30.85
74537;SHT31;63013;51.104;-115.370;2023-03-14T03:28:22;21.74;30.82
74537;SHT31;63013;51.104;-115.370;2023-03-14T03:30:49;21.73;30.81
74537;SHT31;63013;51.104;-115.370;2023-03-14T03:33:16;21.71;30.80
74537;SHT31;63013;51.104;-115.370;2023-03-14T03:35:43;21.71;30.80
74537;SHT31;63013;51.104;-115.370;2023-03-14T03:38:14;21.69;30.76
74537;SHT31;63013;51.104;-115.370;2023-03-14T03:40:42;21.69;30.75
74537;SHT31;63013;51.104;-115.370;2023-03-14T03:43:09;21.68;30.70
74537;SHT31;63013;51.104;-115.370;2023-03-14T03:45:36;21.68;30.70
74537;SHT31;63013;51.104;-115.370;2023-03-14T03:48:04;21.67;30.70
74537;SHT31;63013;51.104;-115.370;2023-03-14T03:50:31;21.66;30.65
74537;SHT31;63013;51.104;-115.370;2023-03-14T03:52:58;21.65;30.65
74537;SHT31;63013;51.104;-115.370;2023-03-14T03:55:25;21.63;30.62
74537;SHT31;63013;51.104;-115.370;2023-03-14T03:58:02;21.61;30.60
74537;SHT31;63013;51.104;-115.370;2023-03-14T04:00:29;21.60;30.60
74537;SHT31;63013;51.104;-115.370;2023-03-14T04:02:58;21.58;30.59
74537;SHT31;63013;51.104;-115.370;2023-03-14T04:05:26;21.56;30.58
74537;SHT31;63013;51.104;-115.370;2023-03-14T04:07:52;21.55;30.58
74537;SHT31;63013;51.104;-115.370;2023-03-14T04:10:20;21.54;30.57
74537;SHT31;63013;51.104;-115.370;2023-03-14T04:12:47;21.52;30.57
74537;SHT31;63013;51.104;-115.370;2023-03-14T04:15:14;21.49;30.56
74537;SHT31;63013;51.104;-115.370;2023-03-14T04:17:41;21.48;30.58
74537;SHT31;63013;51.104;-115.370;2023-03-14T04:20:08;21.48;30.51
74537;SHT31;63013;51.104;-115.370;2023-03-14T04:22:37;21.46;30.53
74537;SHT31;63013;51.104;-115.370;2023-03-14T04:25:05;21.44;30.57
74537;SHT31;63013;51.104;-115.370;2023-03-14T04:27:33;21.42;30.54
74537;SHT31;63013;51.104;-115.370;2023-03-14T04:30:00;21.41;30.52
74537;SHT31;63013;51.104;-115.370;2023-03-14T04:32:27;21.39;30.56
74537;SHT31;63013;51.104;-115.370;2023-03-14T04:34:54;21.39;30.52
74537;SHT31;63013;51.104;-115.370;2023-03-14T04:37:21;21.36;30.51
74537;SHT31;63013;51.104;-115.370;2023-03-14T04:39:48;21.35;30.51
74537;SHT31;63013;51.104;-115.370;2023-03-14T04:42:15;21.34;30.50
74537;SHT31;63013;51.104;-115.370;2023-03-14T04:44:42;21.32;30.51
74537;SHT31;63013;51.104;-115.370;2023-03-14T04:47:10;21.31;30.50
74537;SHT31;63013;51.104;-115.370;2023-03-14T04:49:37;21.30;30.50
74537;SHT31;63013;51.104;-115.370;2023-03-14T04:52:04;21.28;30.51
74537;SHT31;63013;51.104;-115.370;2023-03-14T04:54:31;21.27;30.49
74537;SHT31;63013;51.104;-115.370;2023-03-14T04:56:58;21.26;30.50
74537;SHT31;63013;51.104;-115.370;2023-03-14T04:59:25;21.25;30.47
74537;SHT31;63013;51.104;-115.370;2023-03-14T05:01:52;21.23;30.47
74537;SHT31;63013;51.104;-115.370;2023-03-14T05:04:19;21.22;30.46
74537;SHT31;63013;51.104;-115.370;2023-03-14T05:06:46;21.20;30.48
74537;SHT31;63013;51.104;-115.370;2023-03-14T05:09:13;21.19;30.47
74537;SHT31;63013;51.104;-115.370;2023-03-14T05:11:40;21.17;30.46
74537;SHT31;63013;51.104;-115.370;2023-03-14T05:14:07;21.15;30.45
74537;SHT31;63013;51.104;-115.370;2023-03-14T05:16:34;21.14;30.42
74537;SHT31;63013;51.104;-115.370;2023-03-14T05:19:01;21.13;30.40
74537;SHT31;63013;51.104;-115.370;2023-03-14T05:21:29;21.12;30.40
74537;SHT31;63013;51.104;-115.370;2023-03-14T05:23:56;21.11;30.42
74537;SHT31;63013;51.104;-115.370;2023-03-14T05:26:23;21.10;30.40
74537;SHT31;63013;51.104;-115.370;2023-03-14T05:28:50;21.09;30.40
74537;SHT31;63013;51.104;-115.370;2023-03-14T05:31:18;21.07;30.40
74537;SHT31;63013;51.104;-115.370;2023-03-14T05:33:45;21.06;30.41
74537;SHT31;63013;51.104;-115.370;2023-03-14T05:36:12;21.05;30.40
74537;SHT31;63013;51.104;-115.370;2023-03-14T05:38:40;21.05;30.39
74537;SHT31;63013;51.104;-115.370;2023-03-14T05:41:07;21.03;30.41
74537;SHT31;63013;51.104;-115.370;2023-03-14T05:43:34;21.02;30.40
74537;SHT31;63013;51.104;-115.370;2023-03-14T05:46:01;21.01;30.40
74537;SHT31;63013;51.104;-115.370;2023-03-14T05:48:28;21.00;30.39
74537;SHT31;63013;51.104;-115.370;2023-03-14T05:50:56;20.99;30.40
74537;SHT31;63013;51.104;-115.370;2023-03-14T05:53:24;20.98;30.40
74537;SHT31;63013;51.104;-115.370;2023-03-14T05:55:52;20.97;30.39
74537;SHT31;63013;51.104;-115.370;2023-03-14T05:58:20;20.96;30.39
74537;SHT31;63013;51.104;-115.370;2023-03-14T06:00:48;20.96;30.37
74537;SHT31;63013;51.104;-115.370;2023-03-14T06:03:16;20.94;30.33
74537;SHT31;63013;51.104;-115.370;2023-03-14T06:05:43;20.94;30.33
74537;SHT31;63013;51.104;-115.370;2023-03-14T06:08:10;20.93;30.31
74537;SHT31;63013;51.104;-115.370;2023-03-14T06:10:37;20.92;30.30
74537;SHT31;63013;51.104;-115.370;2023-03-14T06:13:04;20.90;30.30
74537;SHT31;63013;51.104;-115.370;2023-03-14T06:15:31;20.89;30.30
74537;SHT31;63013;51.104;-115.370;2023-03-14T06:17:58;20.88;30.29
74537;SHT31;63013;51.104;-115.370;2023-03-14T06:20:25;20.86;30.29
74537;SHT31;63013;51.104;-115.370;2023-03-14T06:22:52;20.85;30.28
74537;SHT31;63013;51.104;-115.370;2023-03-14T06:25:19;20.83;30.30
74537;SHT31;63013;51.104;-115.370;2023-03-14T06:27:46;20.84;30.31
74537;SHT31;63013;51.104;-115.370;2023-03-14T06:30:14;20.82;30.30
74537;SHT31;63013;51.104;-115.370;2023-03-14T06:32:41;20.80;30.29
74537;SHT31;63013;51.104;-115.370;2023-03-14T06:35:08;20.78;30.31
74537;SHT31;63013;51.104;-115.370;2023-03-14T06:37:35;20.76;30.30
74537;SHT31;63013;51.104;-115.370;2023-03-14T06:40:02;20.75;30.29
74537;SHT31;63013;51.104;-115.370;2023-03-14T06:42:30;20.74;30.30
74537;SHT31;63013;51.104;-115.370;2023-03-14T06:44:57;20.72;30.30
74537;SHT31;63013;51.104;-115.370;2023-03-14T06:47:25;20.70;30.29
74537;SHT31;63013;51.104;-115.370;2023-03-14T06:49:52;20.68;30.32
74537;SHT31;63013;51.104;-115.370;2023-03-14T06:52:19;20.67;30.31
74537;SHT31;63013;51.104;-115.370;2023-03-14T06:54:46;20.66;30.32
74537;SHT31;63013;51.104;-115.370;2023-03-14T06:57:13;20.66;30.30
74537;SHT31;63013;51.104;-115.370;2023-03-14T06:59:40;20.63;30.30
74537;SHT31;63013;51.104;-115.370;2023-03-14T07:02:11;20.63;30.30
74537;SHT31;63013;51.104;-115.370;2023-03-14T07:04:38;20.61;30.32
74537;SHT31;63013;51.104;-115.370;2023-03-14T07:07:05;20.60;30.30
74537;SHT31;63013;51.104;-115.370;2023-03-14T07:09:33;20.59;30.33
74537;SHT31;63013;51.104;-115.370;2023-03-14T07:12:01;20.57;30.35
74537;SHT31;63013;51.104;-115.370;2023-03-14T07:14:29;20.56;30.32
74537;SHT31;63013;51.104;-115.370;2023-03-14T07:16:56;20.56;30.33
74537;SHT31;63013;51.104;-115.370;2023-03-14T07:19:24;20.55;30.31
74537;SHT31;63013;51.104;-115.370;2023-03-14T07:21:52;20.53;30.33
74537;SHT31;63013;51.104;-115.370;2023-03-14T07:24:19;20.52;30.32
74537;SHT31;63013;51.104;-115.370;2023-03-14T07:26:47;20.51;30.38
74537;SHT31;63013;51.104;-115.370;2023-03-14T07:29:17;20.50;30.34
74537;SHT31;63013;51.104;-115.370;2023-03-14T07:31:44;20.48;30.34
74537;SHT31;63013;51.104;-115.370;2023-03-14T07:34:12;20.46;30.35
74537;SHT31;63013;51.104;-115.370;2023-03-14T07:36:39;20.45;30.36
74537;SHT31;63013;51.104;-115.370;2023-03-14T07:39:09;20.43;30.39
74537;SHT31;63013;51.104;-115.370;2023-03-14T07:41:36;20.43;30.36
74537;SHT31;63013;51.104;-115.370;2023-03-14T07:44:03;20.41;30.39
74537;SHT31;63013;51.104;-115.370;2023-03-14T07:46:30;20.40;30.38
74537;SHT31;63013;51.104;-115.370;2023-03-14T07:48:57;20.39;30.35
74537;SHT31;63013;51.104;-115.370;2023-03-14T07:51:24;20.37;30.33
74537;SHT31;63013;51.104;-115.370;2023-03-14T07:53:51;20.37;30.36
74537;SHT31;63013;51.104;-115.370;2023-03-14T07:56:18;20.37;30.30
74537;SHT31;63013;51.104;-115.370;2023-03-14T07:58:45;20.35;30.30
74537;SHT31;63013;51.104;-115.370;2023-03-14T08:01:13;20.35;30.31
74537;SHT31;63013;51.104;-115.370;2023-03-14T08:03:40;20.34;30.30
74537;SHT31;63013;51.104;-115.370;2023-03-14T08:06:07;20.32;30.30
74537;SHT31;63013;51.104;-115.370;2023-03-14T08:08:34;20.31;30.30
74537;SHT31;63013;51.104;-115.370;2023-03-14T08:11:05;20.31;30.31
74537;SHT31;63013;51.104;-115.370;2023-03-14T08:13:36;20.29;30.35
74537;SHT31;63013;51.104;-115.370;2023-03-14T08:16:07;20.28;30.35
74537;SHT31;63013;51.104;-115.370;2023-03-14T08:18:35;20.27;30.36
74537;SHT31;63013;51.104;-115.370;2023-03-14T08:21:01;20.24;30.38
74537;SHT31;63013;51.104;-115.370;2023-03-14T08:23:29;20.23;30.36
74537;SHT31;63013;51.104;-115.370;2023-03-14T08:25:56;20.22;30.39
74537;SHT31;63013;51.104;-115.370;2023-03-14T08:28:25;20.20;30.39
74537;SHT31;63013;51.104;-115.370;2023-03-14T08:30:56;20.18;30.41
74537;SHT31;63013;51.104;-115.370;2023-03-14T08:33:24;20.17;30.44
74537;SHT31;63013;51.104;-115.370;2023-03-14T08:35:56;20.15;30.39
74537;SHT31;63013;51.104;-115.370;2023-03-14T08:38:25;20.13;30.44
74537;SHT31;63013;51.104;-115.370;2023-03-14T08:40:57;20.12;30.39
74537;SHT31;63013;51.104;-115.370;2023-03-14T08:43:26;20.10;30.40
74537;SHT31;63013;51.104;-115.370;2023-03-14T08:45:57;20.08;30.40
74537;SHT31;63013;51.104;-115.370;2023-03-14T08:48:25;20.07;30.42
74537;SHT31;63013;51.104;-115.370;2023-03-14T08:50:52;20.06;30.41
74537;SHT31;63013;51.104;-115.370;2023-03-14T08:53:19;20.05;30.42
74537;SHT31;63013;51.104;-115.370;2023-03-14T08:55:52;20.05;30.37
74537;SHT31;63013;51.104;-115.370;2023-03-14T08:58:19;20.03;30.38
74537;SHT31;63013;51.104;-115.370;2023-03-14T09:00:49;20.01;30.34
74537;SHT31;63013;51.104;-115.370;2023-03-14T09:03:16;20.00;30.32
74537;SHT31;63013;51.104;-115.370;2023-03-14T09:05:43;19.99;30.32
74537;SHT31;63013;51.104;-115.370;2023-03-14T09:08:10;19.98;30.35
74537;SHT31;63013;51.104;-115.370;2023-03-14T09:10:37;19.97;30.30
74537;SHT31;63013;51.104;-115.370;2023-03-14T09:13:05;19.96;30.36
74537;SHT31;63013;51.104;-115.370;2023-03-14T09:15:32;19.95;30.30
74537;SHT31;63013;51.104;-115.370;2023-03-14T09:17:59;19.94;30.32
74537;SHT31;63013;51.104;-115.370;2023-03-14T09:20:26;19.92;30.35
74537;SHT31;63013;51.104;-115.370;2023-03-14T09:22:53;19.91;30.40
74537;SHT31;63013;51.104;-115.370;2023-03-14T09:25:20;19.89;30.40
74537;SHT31;63013;51.104;-115.370;2023-03-14T09:27:47;19.87;30.41
74537;SHT31;63013;51.104;-115.370;2023-03-14T09:30:15;19.87;30.43
74537;SHT31;63013;51.104;-115.370;2023-03-14T09:32:42;19.86;30.42
74537;SHT31;63013;51.104;-115.370;2023-03-14T09:35:10;19.83;30.45
74537;SHT31;63013;51.104;-115.370;2023-03-14T09:37:37;19.81;30.42
74537;SHT31;63013;51.104;-115.370;2023-03-14T09:40:04;19.80;30.46
74537;SHT31;63013;51.104;-115.370;2023-03-14T09:42:37;19.78;30.43
74537;SHT31;63013;51.104;-115.370;2023-03-14T09:45:06;19.76;30.48
74537;SHT31;63013;51.104;-115.370;2023-03-14T09:48:05;19.74;30.49
74537;SHT31;63013;51.104;-115.370;2023-03-14T09:50:43;19.72;30.49
74537;SHT31;63013;51.104;-115.370;2023-03-14T09:53:24;19.69;30.49
74537;SHT31;63013;51.104;-115.370;2023-03-14T09:56:09;19.68;30.50
74537;SHT31;63013;51.104;-115.370;2023-03-14T09:58:57;19.66;30.49
74537;SHT31;63013;51.104;-115.370;2023-03-14T10:01:30;19.64;30.53
74537;SHT31;63013;51.104;-115.370;2023-03-14T10:04:07;19.62;30.49
74537;SHT31;63013;51.104;-115.370;2023-03-14T10:06:41;19.60;30.38
74537;SHT31;63013;51.104;-115.370;2023-03-14T10:09:11;19.59;30.38
74537;SHT31;63013;51.104;-115.370;2023-03-14T10:11:55;19.58;30.38
74537;SHT31;63013;51.104;-115.370;2023-03-14T10:14:32;19.58;30.39
74537;SHT31;63013;51.104;-115.370;2023-03-14T10:17:09;19.56;30.41
74537;SHT31;63013;51.104;-115.370;2023-03-14T10:19:52;19.55;30.41
74537;SHT31;63013;51.104;-115.370;2023-03-14T10:22:27;19.54;30.42
74537;SHT31;63013;51.104;-115.370;2023-03-14T10:25:06;19.52;30.41
74537;SHT31;63013;51.104;-115.370;2023-03-14T10:28:24;19.50;30.46
74537;SHT31;63013;51.104;-115.370;2023-03-14T10:30:55;19.49;30.48
74537;SHT31;63013;51.104;-115.370;2023-03-14T10:33:25;19.47;30.45
74537;SHT31;63013;51.104;-115.370;2023-03-14T10:35:56;19.44;30.44
74537;SHT31;63013;51.104;-115.370;2023-03-14T10:38:46;19.42;30.47
74537;SHT31;63013;51.104;-115.370;2023-03-14T10:41:17;19.41;30.49
74537;SHT31;63013;51.104;-115.370;2023-03-14T10:43:52;19.40;30.48
74537;SHT31;63013;51.104;-115.370;2023-03-14T10:46:25;19.39;30.43
74537;SHT31;63013;51.104;-115.370;2023-03-14T10:48:58;19.37;30.43
74537;SHT31;63013;51.104;-115.370;2023-03-14T10:51:31;19.36;30.51
74537;SHT31;63013;51.104;-115.370;2023-03-14T10:54:00;19.34;30.46
74537;SHT31;63013;51.104;-115.370;2023-03-14T10:56:37;19.33;30.44
74537;SHT31;63013;51.104;-115.370;2023-03-14T10:59:11;19.31;30.48
74537;SHT31;63013;51.104;-115.370;2023-03-14T11:01:48;19.29;30.47
74537;SHT31;63013;51.104;-115.370;2023-03-14T11:07:32;19.26;30.43
74537;SHT31;63013;51.104;-115.370;2023-03-14T11:16:09;19.20;30.51
74537;SHT31;63013;51.104;-115.370;2023-03-14T11:19:31;19.18;30.45
74537;SHT31;63013;51.104;-115.370;2023-03-14T11:25:32;19.13;30.44
74537;SHT31;63013;51.104;-115.370;2023-03-14T11:28:34;19.11;30.50
74537;SHT31;63013;51.104;-115.370;2023-03-14T11:36:38;19.05;30.41
74537;SHT31;63013;51.104;-115.370;2023-03-14T11:39:15;19.03;30.42
74537;SHT31;63013;51.104;-115.370;2023-03-14T11:41:46;19.01;30.49
74537;SHT31;63013;51.104;-115.370;2023-03-14T11:44:19;19.00;30.41
74537;SHT31;63013;51.104;-115.370;2023-03-14T11:46:57;18.98;30.47
74537;SHT31;63013;51.104;-115.370;2023-03-14T11:49:56;18.97;30.48
74537;SHT31;63013;51.104;-115.370;2023-03-14T11:52:47;18.93;30.41
74537;SHT31;63013;51.104;-115.370;2023-03-14T11:55:35;18.92;30.48
74537;SHT31;63013;51.104;-115.370;2023-03-14T11:58:15;18.90;30.43
74537;SHT31;63013;51.104;-115.370;2023-03-14T12:00:47;18.88;30.37
74537;SHT31;63013;51.104;-115.370;2023-03-14T12:09:12;18.82;30.44
74537;SHT31;63013;51.104;-115.370;2023-03-14T12:14:29;18.80;30.36
74537;SHT31;63013;51.104;-115.370;2023-03-14T12:17:05;18.77;30.46
74537;SHT31;63013;51.104;-115.370;2023-03-14T12:19:46;18.75;30.44
74537;SHT31;63013;51.104;-115.370;2023-03-14T12:22:34;18.75;30.48
74537;SHT31;63013;51.104;-115.370;2023-03-14T12:25:30;18.73;30.42
74537;SHT31;63013;51.104;-115.370;2023-03-14T12:30:47;18.69;30.47
74537;SHT31;63013;51.104;-115.370;2023-03-14T12:46:59;18.58;30.42
74537;SHT31;63013;51.104;-115.370;2023-03-14T12:49:44;18.56;30.46
74537;SHT31;63013;51.104;-115.370;2023-03-14T12:52:16;18.55;30.53
74537;SHT31;63013;51.104;-115.370;2023-03-14T12:55:00;18.53;30.43
74537;SHT31;63013;51.104;-115.370;2023-03-14T12:57:45;18.51;30.39
74537;SHT31;63013;51.104;-115.370;2023-03-14T13:00:32;18.50;30.49
74537;SHT31;63013;51.104;-115.370;2023-03-14T13:06:00;18.47;30.34
74537;SHT31;63013;51.104;-115.370;2023-03-14T13:08:37;18.45;30.44
74537;SHT31;63013;51.104;-115.370;2023-03-14T13:11:09;18.44;30.43
74537;SHT31;63013;51.104;-115.370;2023-03-14T13:13:48;18.43;30.48
74537;SHT31;63013;51.104;-115.370;2023-03-14T13:16:24;18.42;30.50
74537;SHT31;63013;51.104;-115.370;2023-03-14T13:19:01;18.41;30.46
74537;SHT31;63013;51.104;-115.370;2023-03-14T13:21:51;18.39;30.74
74537;SHT31;63013;51.104;-115.370;2023-03-14T13:24:27;18.37;30.95
74537;SHT31;63013;51.104;-115.370;2023-03-14T13:26:56;18.36;30.93
74537;SHT31;63013;51.104;-115.370;2023-03-14T13:29:28;18.35;30.83
74537;SHT31;63013;51.104;-115.370;2023-03-14T13:32:01;18.34;30.74
74537;SHT31;63013;51.104;-115.370;2023-03-14T13:34:45;18.33;30.68
74537;SHT31;63013;51.104;-115.370;2023-03-14T13:37:19;18.31;30.67
74537;SHT31;63013;51.104;-115.370;2023-03-14T13:39:50;18.31;30.65
74537;SHT31;63013;51.104;-115.370;2023-03-14T13:42:21;18.30;30.52
74537;SHT31;63013;51.104;-115.370;2023-03-14T13:44:54;18.30;30.51
74537;SHT31;63013;51.104;-115.370;2023-03-14T13:47:24;18.28;30.45
74537;SHT31;63013;51.104;-115.370;2023-03-14T13:49:53;18.29;30.54
74537;SHT31;63013;51.104;-115.370;2023-03-14T13:52:24;18.29;30.72
74537;SHT31;63013;51.104;-115.370;2023-03-14T13:55:04;18.32;30.80
74537;SHT31;63013;51.104;-115.370;2023-03-14T13:57:48;18.33;30.86
74537;SHT31;63013;51.104;-115.370;2023-03-14T14:00:25;18.35;30.92
74537;SHT31;63013;51.104;-115.370;2023-03-14T14:02:55;18.38;30.99
74537;SHT31;63013;51.104;-115.370;2023-03-14T14:05:26;18.41;31.00
74537;SHT31;63013;51.104;-115.370;2023-03-14T14:07:57;18.44;31.00
74537;SHT31;63013;51.104;-115.370;2023-03-14T14:10:25;18.48;31.00
74537;SHT31;63013;51.104;-115.370;2023-03-14T14:13:00;18.50;31.02
74537;SHT31;63013;51.104;-115.370;2023-03-14T14:15:32;18.54;31.03
74537;SHT31;63013;51.104;-115.370;2023-03-14T14:18:09;18.60;31.08
74537;SHT31;63013;51.104;-115.370;2023-03-14T14:20:43;18.63;31.09
74537;SHT31;63013;51.104;-115.370;2023-03-14T14:23:14;18.67;31.08
74537;SHT31;63013;51.104;-115.370;2023-03-14T14:25:50;18.72;31.08
74537;SHT31;63013;51.104;-115.370;2023-03-14T14:28:26;18.76;31.06
74537;SHT31;63013;51.104;-115.370;2023-03-14T14:34:03;18.89;31.09
74537;SHT31;63013;51.104;-115.370;2023-03-14T14:36:31;18.95;31.08
74537;SHT31;63013;51.104;-115.370;2023-03-14T14:41:54;19.06;31.04
74537;SHT31;63013;51.104;-115.370;2023-03-14T14:44:27;19.11;31.06
74537;SHT31;63013;51.104;-115.370;2023-03-14T14:47:01;19.15;31.06
74537;SHT31;63013;51.104;-115.370;2023-03-14T14:49:30;19.20;31.07
74537;SHT31;63013;51.104;-115.370;2023-03-14T14:55:12;19.32;31.10
74537;SHT31;63013;51.104;-115.370;2023-03-14T14:57:52;19.38;31.12
74537;SHT31;63013;51.104;-115.370;2023-03-14T15:00:25;19.46;31.06
74537;SHT31;63013;51.104;-115.370;2023-03-14T15:02:54;19.54;31.00
74537;SHT31;63013;51.104;-115.370;2023-03-14T15:05:26;19.61;30.99
74537;SHT31;63013;51.104;-115.370;2023-03-14T15:08:01;19.68;30.97
74537;SHT31;63013;51.104;-115.370;2023-03-14T15:10:28;19.73;30.92
74537;SHT31;63013;51.104;-115.370;2023-03-14T15:12:55;19.79;30.91
74537;SHT31;63013;51.104;-115.370;2023-03-14T15:15:22;19.84;30.87
74537;SHT31;63013;51.104;-115.370;2023-03-14T15:17:49;19.87;30.84
74537;SHT31;63013;51.104;-115.370;2023-03-14T15:20:17;19.90;30.80
74537;SHT31;63013;51.104;-115.370;2023-03-14T15:22:49;19.91;30.85
74537;SHT31;63013;51.104;-115.370;2023-03-14T15:25:16;19.93;30.87
74537;SHT31;63013;51.104;-115.370;2023-03-14T15:27:43;19.93;30.86
74537;SHT31;63013;51.104;-115.370;2023-03-14T15:30:11;19.94;30.89
74537;SHT31;63013;51.104;-115.370;2023-03-14T15:32:40;19.94;30.90
74537;SHT31;63013;51.104;-115.370;2023-03-14T15:35:08;19.97;30.90
74537;SHT31;63013;51.104;-115.370;2023-03-14T15:37:35;19.99;30.90
74537;SHT31;63013;51.104;-115.370;2023-03-14T15:40:03;20.02;30.90
74537;SHT31;63013;51.104;-115.370;2023-03-14T15:42:38;20.07;30.89
74537;SHT31;63013;51.104;-115.370;2023-03-14T15:45:06;20.09;30.91
74537;SHT31;63013;51.104;-115.370;2023-03-14T15:47:34;20.12;30.90
74537;SHT31;63013;51.104;-115.370;2023-03-14T15:50:04;20.15;30.90
74537;SHT31;63013;51.104;-115.370;2023-03-14T15:52:35;20.17;30.88
74537;SHT31;63013;51.104;-115.370;2023-03-14T15:55:02;20.18;30.96
74537;SHT31;63013;51.104;-115.370;2023-03-14T15:57:30;20.18;30.98
74537;SHT31;63013;51.104;-115.370;2023-03-14T15:59:57;20.19;30.99
74537;SHT31;63013;51.104;-115.370;2023-03-14T16:02:25;20.19;31.00
74537;SHT31;63013;51.104;-115.370;2023-03-14T16:04:52;20.18;31.03
74537;SHT31;63013;51.104;-115.370;2023-03-14T16:07:23;20.18;31.07
74537;SHT31;63013;51.104;-115.370;2023-03-14T16:09:50;20.18;31.08
74537;SHT31;63013;51.104;-115.370;2023-03-14T16:12:17;20.18;31.10